Time;durP1;ratioP1;P1;durP2;ratioP2;P2;SDS_P1;SDS_P2;PMS_P1;PMS_P2;Temp;Humidity;BMP_temperature;BMP_pressure;BME280_temperature;BME280_humidity;BME280_pressure;Samples;Min_cycle;Max_cycle;Signal;HPM_P1;HPM_P2
2024/01/26 00:02:06;;;;;;;7.00;3.37;;;;;;;3.96;97.04;99990.73;123599;1099;104325;-74
2024/01/26 00:04:38;;;;;;;6.37;3.60;;;;;;;3.96;97.45;99995.05;123472;1099;104226;-75
2024/01/26 00:07:09;;;;;;;5.70;3.25;;;;;;;3.93;97.51;100011.34;123607;1099;104246;-76
2024/01/26 00:09:41;;;;;;;6.17;3.50;;;;;;;3.91;97.56;100009.45;123654;1098;104353;-75
2024/01/26 00:12:12;;;;;;;8.73;3.63;;;;;;;3.89;97.57;100014.56;123601;1099;104315;-75
2024/01/26 00:14:43;;;;;;;6.50;3.73;;;;;;;3.87;97.80;99999.74;123583;1099;105639;-75
2024/01/26 00:17:14;;;;;;;7.13;3.27;;;;;;;3.83;97.63;100010.75;123583;1099;104245;-75
2024/01/26 00:19:45;;;;;;;7.03;3.63;;;;;;;3.78;98.20;100008.78;123662;1099;104309;-75
2024/01/26 00:22:16;;;;;;;7.43;3.73;;;;;;;3.72;97.95;100012.75;123643;1099;104392;-75
2024/01/26 00:24:47;;;;;;;6.43;3.30;;;;;;;3.68;98.30;100010.82;123608;1099;104284;-76
2024/01/26 00:27:19;;;;;;;5.40;2.90;;;;;;;3.58;97.74;100017.17;123646;1099;104274;-74
2024/01/26 00:29:50;;;;;;;5.40;2.93;;;;;;;3.51;97.25;100025.45;123617;1099;104376;-74
2024/01/26 00:32:21;;;;;;;4.10;2.50;;;;;;;3.44;98.04;100028.48;123701;1099;104309;-74
2024/01/26 00:34:53;;;;;;;4.60;2.40;;;;;;;3.36;97.72;100028.05;123561;1098;104377;-76
2024/01/26 00:37:24;;;;;;;4.30;2.40;;;;;;;3.27;97.41;100032.71;123766;1099;104385;-75
2024/01/26 00:39:55;;;;;;;4.20;2.33;;;;;;;3.20;97.16;100041.85;123650;1099;104210;-75
2024/01/26 00:42:26;;;;;;;3.27;2.00;;;;;;;3.14;96.94;100028.53;123608;1099;104344;-75
2024/01/26 00:44:57;;;;;;;2.83;1.97;;;;;;;3.06;97.12;100033.27;123656;1099;104245;-75
2024/01/26 00:47:29;;;;;;;3.13;2.20;;;;;;;2.99;97.29;100039.80;123403;1099;104457;-75
2024/01/26 00:50:00;;;;;;;3.30;1.83;;;;;;;2.94;97.12;100051.58;123702;1099;104299;-75
2024/01/26 00:52:32;;;;;;;4.07;2.13;;;;;;;2.89;97.69;100053.02;123685;1099;104251;-75
2024/01/26 00:55:03;;;;;;;3.40;2.23;;;;;;;2.84;96.86;100047.56;123615;1098;104284;-76
2024/01/26 00:57:34;;;;;;;3.27;2.13;;;;;;;2.79;97.29;100053.27;123604;1098;104306;-76
2024/01/26 01:00:08;;;;;;;4.93;2.07;;;;;;;2.75;97.47;100057.37;123662;1099;104371;-75
2024/01/26 01:02:39;;;;;;;2.10;1.82;;;;;;;2.71;97.47;100052.80;123629;1099;104240;-75
2024/01/26 01:05:10;;;;;;;2.20;1.80;;;;;;;2.64;97.01;100050.67;123604;1099;104386;-75
2024/01/26 01:07:42;;;;;;;2.50;1.57;;;;;;;2.59;96.56;100054.69;123701;1098;104375;-76
2024/01/26 01:10:15;;;;;;;2.70;1.70;;;;;;;2.55;96.89;100058.77;123625;1099;104277;-75
2024/01/26 01:12:46;;;;;;;3.10;1.63;;;;;;;2.50;96.16;100053.30;123483;1099;104396;-75
2024/01/26 01:15:18;;;;;;;2.87;1.80;;;;;;;2.47;97.05;100055.70;123520;1099;104296;-75
2024/01/26 01:17:50;;;;;;;4.77;1.90;;;;;;;2.41;96.63;100060.52;123412;1099;104325;-76
2024/01/26 01:20:21;;;;;;;3.37;1.77;;;;;;;2.38;96.75;100065.50;123681;1099;104348;-75
2024/01/26 01:22:53;;;;;;;3.40;1.90;;;;;;;2.34;96.38;100061.84;123734;1098;104284;-75
2024/01/26 01:25:25;;;;;;;3.37;2.03;;;;;;;2.31;96.35;100068.54;123615;1099;104306;-76
2024/01/26 01:27:56;;;;;;;2.27;1.70;;;;;;;2.27;96.41;100064.84;123188;1099;104319;-76
2024/01/26 01:30:27;;;;;;;2.23;1.77;;;;;;;2.23;96.40;100080.09;123549;1099;104255;-75
2024/01/26 01:32:58;;;;;;;4.40;1.80;;;;;;;2.21;96.60;100077.41;123611;1099;104214;-75
2024/01/26 01:35:30;;;;;;;3.00;2.07;;;;;;;2.18;96.28;100073.75;123607;1099;104325;-74
2024/01/26 01:38:01;;;;;;;4.87;1.87;;;;;;;2.16;95.78;100074.53;123598;1099;104329;-75
2024/01/26 01:40:32;;;;;;;4.33;2.10;;;;;;;2.14;96.42;100070.96;123611;1099;104352;-75
2024/01/26 01:43:03;;;;;;;3.97;2.33;;;;;;;2.10;96.21;100074.18;123468;1099;104273;-75
2024/01/26 01:45:35;;;;;;;2.20;1.90;;;;;;;2.10;95.76;100071.59;123567;1099;104344;-76
2024/01/26 01:48:07;;;;;;;3.93;1.97;;;;;;;2.07;95.88;100075.66;123590;1099;104287;-75
2024/01/26 01:50:39;;;;;;;3.83;1.80;;;;;;;2.04;95.25;100068.63;123579;1099;104489;-75
2024/01/26 01:53:11;;;;;;;3.30;2.10;;;;;;;2.02;95.04;100074.48;123533;1099;104258;-75
2024/01/26 01:55:44;;;;;;;3.23;1.97;;;;;;;2.00;94.88;100068.33;123577;1099;104306;-75
2024/01/26 01:58:17;;;;;;;3.30;2.20;;;;;;;1.97;94.73;100081.96;123262;1099;104354;-75
2024/01/26 02:00:49;;;;;;;5.53;2.10;;;;;;;1.95;94.85;100073.22;123869;1099;104272;-74
2024/01/26 02:03:21;;;;;;;3.33;1.90;;;;;;;1.94;94.82;100080.06;123696;1099;104229;-75
2024/01/26 02:05:52;;;;;;;3.50;2.03;;;;;;;1.92;95.33;100073.02;123446;1099;104373;-74
2024/01/26 02:08:24;;;;;;;2.07;1.53;;;;;;;1.89;94.25;100062.48;123642;1099;104243;-74
2024/01/26 02:10:55;;;;;;;3.70;1.90;;;;;;;1.87;94.26;100069.23;123868;1099;104306;-75
2024/01/26 02:13:26;;;;;;;3.80;2.00;;;;;;;1.86;95.08;100082.98;124024;1099;104303;-74
2024/01/26 02:15:57;;;;;;;3.03;2.00;;;;;;;1.84;94.54;100080.30;123818;1099;104361;-75
2024/01/26 02:18:28;;;;;;;3.13;1.80;;;;;;;1.83;94.53;100085.38;123280;1099;104267;-75
2024/01/26 02:21:00;;;;;;;1.95;1.40;;;;;;;1.83;93.55;100098.31;123465;1099;104293;-75
2024/01/26 02:23:31;;;;;;;5.87;2.00;;;;;;;1.82;93.60;100097.39;123518;1099;104707;-75
2024/01/26 02:26:02;;;;;;;4.20;2.00;;;;;;;1.83;93.85;100099.19;123686;1099;104242;-75
2024/01/26 02:28:33;;;;;;;3.77;1.90;;;;;;;1.85;93.43;100105.34;123288;1099;104364;-75
2024/01/26 02:31:04;;;;;;;4.60;1.70;;;;;;;1.87;93.46;100111.54;123285;1099;104289;-76
2024/01/26 02:33:35;;;;;;;3.07;2.03;;;;;;;1.90;93.54;100113.41;123253;1099;104383;-75
2024/01/26 02:36:08;;;;;;;3.60;1.60;;;;;;;1.93;93.04;100108.42;123489;1099;104222;-75
2024/01/26 02:38:40;;;;;;;4.80;1.97;;;;;;;1.96;93.11;100117.30;123511;1099;104332;-74
2024/01/26 02:41:11;;;;;;;3.57;1.93;;;;;;;1.98;92.69;100125.17;123564;1099;104297;-75
2024/01/26 02:43:42;;;;;;;4.30;1.80;;;;;;;2.00;93.26;100126.15;123761;1099;104370;-75
2024/01/26 02:46:14;;;;;;;4.07;2.00;;;;;;;2.03;92.62;100128.94;123514;1099;104367;-75
2024/01/26 02:48:45;;;;;;;3.00;2.00;;;;;;;2.03;92.99;100126.34;123594;1099;104714;-74
2024/01/26 02:51:16;;;;;;;3.17;1.83;;;;;;;2.05;92.39;100129.03;123643;1099;104262;-75
2024/01/26 02:53:49;;;;;;;2.43;2.00;;;;;;;2.07;93.32;100146.46;123748;1099;104293;-75
2024/01/26 02:56:20;;;;;;;3.05;2.30;;;;;;;2.09;91.61;100134.50;123841;1099;104325;-75
2024/01/26 02:58:51;;;;;;;2.00;1.80;;;;;;;2.12;92.24;100139.88;123804;1099;104280;-75
2024/01/26 03:01:22;;;;;;;2.87;1.90;;;;;;;2.15;92.51;100147.83;123610;1099;104335;-75
2024/01/26 03:03:53;;;;;;;4.60;2.43;;;;;;;2.20;91.36;100142.03;123683;1099;104326;-75
2024/01/26 03:06:25;;;;;;;2.17;1.77;;;;;;;2.22;91.59;100148.22;123425;1099;104316;-75
2024/01/26 03:08:56;;;;;;;2.67;2.00;;;;;;;2.22;91.44;100150.81;123739;1099;104328;-74
2024/01/26 03:11:38;;;;;;;2.37;2.00;;;;;;;2.22;91.75;100145.64;123584;1099;104357;-75
2024/01/26 03:14:10;;;;;;;3.50;2.10;;;;;;;2.21;91.59;100149.01;123700;1098;104644;-74
2024/01/26 03:16:42;;;;;;;2.83;2.10;;;;;;;2.20;91.09;100150.72;123610;1099;104363;-74
2024/01/26 03:19:14;;;;;;;3.97;1.93;;;;;;;2.20;91.04;100158.48;123216;1099;104395;-75
2024/01/26 03:21:46;;;;;;;2.17;1.97;;;;;;;2.19;91.00;100172.21;123653;1099;104347;-74
2024/01/26 03:24:17;;;;;;;3.57;1.97;;;;;;;2.20;89.89;100163.66;123579;1099;104288;-75
2024/01/26 03:26:48;;;;;;;3.83;2.20;;;;;;;2.22;90.52;100166.34;123531;1099;104248;-75
2024/01/26 03:29:20;;;;;;;3.03;2.20;;;;;;;2.23;89.92;100162.94;123548;1099;104347;-75
2024/01/26 03:31:51;;;;;;;3.80;1.90;;;;;;;2.24;90.19;100175.98;123562;1099;104900;-75
2024/01/26 03:34:22;;;;;;;3.07;2.10;;;;;;;2.27;89.76;100180.47;123555;1098;104284;-74
2024/01/26 03:36:53;;;;;;;4.60;2.33;;;;;;;2.27;89.47;100170.11;123616;1099;104261;-75
2024/01/26 03:39:24;;;;;;;3.70;2.20;;;;;;;2.28;89.48;100184.86;123614;1099;104275;-75
2024/01/26 03:41:55;;;;;;;4.07;2.00;;;;;;;2.28;90.01;100177.09;123636;1099;104268;-75
2024/01/26 03:44:27;;;;;;;4.20;2.20;;;;;;;2.28;88.99;100180.56;123504;1099;104383;-75
2024/01/26 03:46:58;;;;;;;2.87;1.93;;;;;;;2.28;89.23;100179.68;123616;1099;104460;-75
2024/01/26 03:49:29;;;;;;;3.30;2.10;;;;;;;2.29;89.64;100186.63;123580;1099;104347;-75
2024/01/26 03:52:00;;;;;;;4.53;2.03;;;;;;;2.29;89.40;100184.04;123805;1099;104351;-75
2024/01/26 03:54:32;;;;;;;2.70;2.10;;;;;;;2.29;89.58;100189.22;123669;1099;104226;-75
2024/01/26 03:57:05;;;;;;;3.07;2.20;;;;;;;2.29;89.38;100200.49;123676;1099;104380;-75
2024/01/26 03:59:36;;;;;;;2.90;2.15;;;;;;;2.30;89.62;100193.61;123602;1099;104722;-75
2024/01/26 04:02:07;;;;;;;5.03;2.27;;;;;;;2.31;89.30;100190.23;123667;1099;104271;-75
2024/01/26 04:04:39;;;;;;;3.57;2.13;;;;;;;2.32;89.57;100205.87;123533;1099;104345;-74
2024/01/26 04:07:11;;;;;;;4.30;2.00;;;;;;;2.33;89.86;100204.16;123542;1099;104358;-74
2024/01/26 04:09:42;;;;;;;3.00;2.10;;;;;;;2.33;89.14;100207.64;123660;1099;104287;-75
2024/01/26 04:12:13;;;;;;;2.47;2.00;;;;;;;2.33;88.99;100217.11;123630;1099;104268;-75
2024/01/26 04:14:44;;;;;;;4.20;2.50;;;;;;;2.33;89.27;100222.28;123547;1099;104265;-76
2024/01/26 04:17:15;;;;;;;6.20;2.50;;;;;;;2.32;89.84;100223.99;123631;1099;104277;-75
2024/01/26 04:19:47;;;;;;;3.97;2.30;;;;;;;2.33;89.04;100227.47;123655;1099;104242;-76
2024/01/26 04:22:18;;;;;;;3.00;2.27;;;;;;;2.31;88.96;100231.66;123593;1099;104412;-74
2024/01/26 04:24:49;;;;;;;5.47;2.30;;;;;;;2.28;89.79;100227.17;123548;1098;104348;-74
2024/01/26 04:27:21;;;;;;;5.47;2.93;;;;;;;2.25;89.54;100246.80;123901;1099;104875;-74
2024/01/26 04:29:52;;;;;;;4.03;2.37;;;;;;;2.22;90.05;100238.84;123530;1099;104288;-74
2024/01/26 04:32:23;;;;;;;4.10;2.57;;;;;;;2.18;89.51;100232.54;123427;1099;104361;-76
2024/01/26 04:34:55;;;;;;;4.20;2.40;;;;;;;2.14;89.90;100241.81;123582;1099;104322;-75
2024/01/26 04:37:26;;;;;;;4.77;2.37;;;;;;;2.13;89.84;100244.30;123501;1099;104663;-76
2024/01/26 04:39:57;;;;;;;5.43;2.57;;;;;;;2.12;90.07;100237.31;123816;1099;104294;-74
2024/01/26 04:42:28;;;;;;;6.40;2.70;;;;;;;2.12;90.35;100252.85;123594;1099;104248;-74
2024/01/26 04:44:59;;;;;;;3.77;2.60;;;;;;;2.13;90.01;100236.53;123667;1099;104299;-75
2024/01/26 04:47:31;;;;;;;6.80;2.70;;;;;;;2.16;89.55;100250.56;123546;1099;104347;-75
2024/01/26 04:50:02;;;;;;;5.93;3.00;;;;;;;2.19;90.21;100246.41;123607;1099;104360;-74
2024/01/26 04:52:34;;;;;;;6.63;2.70;;;;;;;2.21;90.36;100252.56;123610;1098;104220;-75
2024/01/26 04:55:06;;;;;;;3.73;2.60;;;;;;;2.21;90.26;100242.20;123673;1099;104302;-75
2024/01/26 04:57:37;;;;;;;4.97;2.67;;;;;;;2.23;89.87;100248.38;123396;1099;104255;-75
2024/01/26 05:00:10;;;;;;;5.50;2.70;;;;;;;2.24;90.28;100243.30;123608;1099;104242;-75
2024/01/26 05:02:42;;;;;;;5.00;2.65;;;;;;;2.25;90.37;100247.69;123325;1099;104431;-75
2024/01/26 05:05:14;;;;;;;3.05;2.30;;;;;;;2.25;90.15;100265.81;123591;1099;104382;-75
2024/01/26 05:07:45;;;;;;;5.63;2.30;;;;;;;2.22;90.07;100250.08;123690;1099;104306;-75
2024/01/26 05:10:16;;;;;;;6.35;2.80;;;;;;;2.21;90.01;100249.98;123560;1099;104376;-75
2024/01/26 05:12:47;;;;;;;5.87;2.77;;;;;;;2.19;90.15;100265.41;123667;1099;104431;-75
2024/01/26 05:15:18;;;;;;;8.07;2.77;;;;;;;2.16;90.80;100245.38;123522;1099;104265;-75
2024/01/26 05:17:50;;;;;;;3.43;2.50;;;;;;;2.15;90.34;100253.05;123694;1099;104347;-75
2024/01/26 05:20:22;;;;;;;5.30;3.23;;;;;;;2.13;89.91;100259.83;123711;1099;104347;-75
2024/01/26 05:22:53;;;;;;;4.35;2.30;;;;;;;2.12;90.46;100252.85;123408;1099;104280;-75
2024/01/26 05:25:27;;;;;;;5.72;2.80;;;;;;;2.11;90.31;100262.31;123655;1099;104312;-75
2024/01/26 05:27:58;;;;;;;5.93;3.13;;;;;;;2.11;89.99;100261.44;123683;1099;104315;-75
2024/01/26 05:30:29;;;;;;;4.80;2.90;;;;;;;2.13;90.94;100263.30;123690;1098;104251;-75
2024/01/26 05:33:01;;;;;;;4.33;2.67;;;;;;;2.12;90.43;100255.44;123813;1099;104284;-75
2024/01/26 05:35:32;;;;;;;5.03;2.53;;;;;;;2.13;90.85;100260.72;123605;1099;104287;-75
2024/01/26 05:38:03;;;;;;;5.70;2.90;;;;;;;2.11;90.71;100261.44;123616;1099;104667;-75
2024/01/26 05:40:34;;;;;;;5.20;2.80;;;;;;;2.12;90.92;100270.97;123597;1099;104676;-75
2024/01/26 05:43:06;;;;;;;6.03;3.17;;;;;;;2.11;90.53;100277.84;123775;1099;104319;-75
2024/01/26 05:45:37;;;;;;;4.87;2.67;;;;;;;2.08;90.57;100275.06;123622;1099;104383;-75
2024/01/26 05:48:09;;;;;;;5.37;2.97;;;;;;;2.05;91.32;100282.62;123798;1099;104348;-75
2024/01/26 05:50:40;;;;;;;8.10;3.20;;;;;;;2.03;91.26;100284.22;123864;1098;104319;-75
2024/01/26 05:53:12;;;;;;;7.30;3.30;;;;;;;2.00;91.20;100286.61;123755;1098;104382;-74
2024/01/26 05:55:45;;;;;;;8.35;3.58;;;;;;;2.01;91.17;100300.43;124027;1099;104650;-75
2024/01/26 05:58:17;;;;;;;8.10;3.60;;;;;;;1.99;91.59;100292.56;123805;1099;104245;-75
2024/01/26 06:00:48;;;;;;;7.47;3.37;;;;;;;1.97;91.49;100296.75;124085;1099;104291;-75
2024/01/26 06:03:19;;;;;;;6.83;3.40;;;;;;;1.98;91.77;100285.62;124017;1099;104165;-75
2024/01/26 06:05:51;;;;;;;8.43;3.67;;;;;;;1.97;91.73;100279.52;126484;1098;104265;-74
2024/01/26 06:08:22;;;;;;;5.77;3.27;;;;;;;2.00;91.69;100283.12;124064;1099;104254;-74
2024/01/26 06:10:55;;;;;;;7.07;3.70;;;;;;;2.00;92.38;100276.25;124335;1099;104281;-74
2024/01/26 06:13:27;;;;;;;6.55;3.62;;;;;;;2.01;92.35;100284.91;123992;1099;105667;-74
2024/01/26 06:15:58;;;;;;;8.33;3.73;;;;;;;2.02;92.14;100292.77;124228;1098;104350;-75
2024/01/26 06:18:30;;;;;;;8.47;3.83;;;;;;;2.06;92.42;100294.78;124043;1099;104271;-75
2024/01/26 06:21:01;;;;;;;7.83;3.47;;;;;;;2.07;92.16;100299.17;124347;1099;104194;-75
2024/01/26 06:23:32;;;;;;;8.33;3.83;;;;;;;2.10;92.62;100301.05;124485;1099;104227;-75
2024/01/26 06:26:04;;;;;;;6.60;3.60;;;;;;;2.12;92.35;100307.20;124484;1099;105017;-75
2024/01/26 06:28:35;;;;;;;9.80;4.20;;;;;;;2.13;92.24;100298.66;124285;1099;104338;-75
2024/01/26 06:31:06;;;;;;;5.67;3.40;;;;;;;2.15;91.88;100308.33;124623;1099;104385;-74
2024/01/26 06:33:37;;;;;;;8.03;3.67;;;;;;;2.19;92.66;100300.77;124481;1099;104175;-74
2024/01/26 06:36:09;;;;;;;7.60;3.80;;;;;;;2.22;92.80;100308.73;125023;1099;104217;-74
2024/01/26 06:38:40;;;;;;;8.80;3.77;;;;;;;2.24;92.29;100314.90;124820;1099;104382;-74
2024/01/26 06:41:12;;;;;;;6.90;3.70;;;;;;;2.27;92.38;100315.98;124561;1099;104359;-74
2024/01/26 06:43:50;;;;;;;7.30;3.80;;;;;;;2.30;92.80;100317.89;124510;1098;104191;-74
2024/01/26 06:46:23;;;;;;;7.47;3.80;;;;;;;2.32;92.24;100312.03;124528;1099;104357;-75
2024/01/26 06:48:54;;;;;;;7.90;3.53;;;;;;;2.32;92.53;100317.21;124236;1099;104309;-74
2024/01/26 06:51:25;;;;;;;6.07;3.40;;;;;;;2.35;92.42;100319.08;124465;1099;104239;-74
2024/01/26 06:54:00;;;;;;;9.67;3.40;;;;;;;2.36;92.60;100318.30;124574;1099;104223;-75
2024/01/26 06:56:32;;;;;;;5.13;3.33;;;;;;;2.38;92.23;100319.28;124836;1099;104306;-75
2024/01/26 06:59:03;;;;;;;6.83;3.30;;;;;;;2.39;92.68;100310.73;124560;1099;104384;-75
2024/01/26 07:01:35;;;;;;;8.40;3.50;;;;;;;2.40;91.79;100328.08;125084;1099;102229;-75
2024/01/26 07:04:06;;;;;;;6.67;3.30;;;;;;;2.42;92.35;100317.81;124850;1099;104679;-74
2024/01/26 07:06:37;;;;;;;8.57;3.60;;;;;;;2.46;92.45;100328.47;124509;1099;104354;-75
2024/01/26 07:09:10;;;;;;;5.70;3.40;;;;;;;2.48;92.06;100315.63;124793;1099;104243;-74
2024/01/26 07:11:46;;;;;;;5.57;2.97;;;;;;;2.55;92.62;100328.16;124653;1099;104197;-75
2024/01/26 07:14:19;;;;;;;5.67;2.77;;;;;;;2.61;92.44;100312.13;124750;1099;104226;-75
2024/01/26 07:16:51;;;;;;;4.72;2.87;;;;;;;2.64;92.58;100330.45;126697;1099;101349;-74
2024/01/26 07:19:22;;;;;;;4.20;2.90;;;;;;;2.65;92.02;100327.97;126814;1099;101984;-75
2024/01/26 07:21:53;;;;;;;5.47;2.63;;;;;;;2.63;91.78;100326.98;125716;1099;103189;-75
2024/01/26 07:24:26;;;;;;;5.63;3.17;;;;;;;2.64;90.54;100326.16;124348;1099;104241;-75
2024/01/26 07:27:01;;;;;;;5.10;2.87;;;;;;;2.64;89.75;100322.69;124643;1099;104163;-75
2024/01/26 07:29:32;;;;;;;5.20;3.00;;;;;;;2.63;90.65;100326.98;124201;1099;104379;-75
2024/01/26 07:32:03;;;;;;;4.33;2.80;;;;;;;2.66;90.34;100331.44;124457;1099;104198;-76
2024/01/26 07:34:35;;;;;;;5.27;2.80;;;;;;;2.63;91.23;100334.75;124545;1099;104579;-74
2024/01/26 07:37:08;;;;;;;6.70;2.90;;;;;;;2.63;90.70;100324.39;124669;1099;104175;-75
2024/01/26 07:39:42;;;;;;;7.13;3.07;;;;;;;2.65;90.33;100343.52;124318;1099;103602;-75
2024/01/26 07:42:16;;;;;;;4.27;2.83;;;;;;;2.66;90.74;100339.22;124874;1099;104245;-75
2024/01/26 07:44:48;;;;;;;5.93;2.90;;;;;;;2.65;90.82;100338.33;124942;1099;104281;-74
2024/01/26 07:47:20;;;;;;;4.53;2.90;;;;;;;2.65;90.42;100335.73;124784;1099;104452;-75
2024/01/26 07:49:54;;;;;;;4.55;2.45;;;;;;;2.66;90.30;100336.63;124952;1099;104178;-75
2024/01/26 07:52:26;;;;;;;3.77;2.50;;;;;;;2.63;90.54;100339.02;124741;1098;104197;-75
2024/01/26 07:54:57;;;;;;;5.97;3.03;;;;;;;2.67;90.87;100320.30;124813;1099;103207;-75
2024/01/26 07:57:28;;;;;;;8.13;3.00;;;;;;;2.73;90.76;100337.91;124713;1099;104246;-75
2024/01/26 08:00:11;;;;;;;6.53;3.47;;;;;;;2.77;91.51;100324.36;124869;1099;104322;-75
2024/01/26 08:02:42;;;;;;;4.50;3.07;;;;;;;2.86;90.73;100330.12;124800;1099;104168;-75
2024/01/26 08:05:14;;;;;;;7.70;3.43;;;;;;;2.84;91.05;100327.44;124638;1099;104242;-75
2024/01/26 08:07:45;;;;;;;6.17;3.37;;;;;;;2.99;91.23;100331.80;124790;1099;104169;-75
2024/01/26 08:10:17;;;;;;;6.73;3.10;;;;;;;3.12;90.45;100344.75;124693;1099;104226;-75
2024/01/26 08:12:51;;;;;;;5.10;2.80;;;;;;;3.24;91.35;100350.70;124580;1099;103318;-74
2024/01/26 08:15:22;;;;;;;7.87;3.47;;;;;;;3.36;90.72;100353.14;124640;1099;104136;-75
2024/01/26 08:17:53;;;;;;;5.10;2.97;;;;;;;3.38;90.64;100346.38;124744;1099;104174;-74
2024/01/26 08:20:25;;;;;;;4.43;2.70;;;;;;;3.41;90.56;100345.65;124702;1099;104273;-74
2024/01/26 08:22:56;;;;;;;5.60;2.80;;;;;;;3.42;89.74;100344.86;124698;1099;104454;-74
2024/01/26 08:25:28;;;;;;;5.30;2.90;;;;;;;3.38;89.27;100366.20;124423;1099;104408;-75
2024/01/26 08:27:59;;;;;;;5.93;2.97;;;;;;;3.37;89.37;100346.28;124515;1099;102730;-75
2024/01/26 08:30:38;;;;;;;5.27;2.63;;;;;;;3.38;89.98;100355.83;124702;1099;103441;-74
2024/01/26 08:33:28;;;;;;;4.27;2.87;;;;;;;3.39;89.92;100366.30;124762;1099;104280;-74
2024/01/26 08:35:59;;;;;;;6.00;2.87;;;;;;;3.39;89.05;100355.05;124383;1098;102781;-74
2024/01/26 08:38:31;;;;;;;3.97;2.77;;;;;;;3.38;88.42;100354.16;124641;1099;102082;-74
2024/01/26 08:41:03;;;;;;;6.17;2.77;;;;;;;3.35;89.21;100363.42;124565;1099;104202;-74
2024/01/26 08:43:36;;;;;;;7.70;3.10;;;;;;;3.36;89.72;100360.04;124356;1099;104318;-74
2024/01/26 08:46:07;;;;;;;5.47;3.10;;;;;;;3.42;88.75;100355.23;124464;1099;104220;-75
2024/01/26 08:48:43;;;;;;;5.70;2.90;;;;;;;3.49;88.78;100360.02;124550;1099;104254;-74
2024/01/26 08:51:14;;;;;;;4.20;3.00;;;;;;;3.66;88.67;100365.31;124469;1099;104128;-74
2024/01/26 08:53:45;;;;;;;4.43;2.57;;;;;;;3.62;87.29;100369.44;124300;1099;104268;-74
2024/01/26 08:56:16;;;;;;;7.07;3.10;;;;;;;3.53;88.24;100377.54;124294;1099;104281;-75
2024/01/26 08:58:48;;;;;;;5.63;3.00;;;;;;;3.50;88.30;100374.75;124369;1099;104248;-75
2024/01/26 09:01:20;;;;;;;5.40;2.90;;;;;;;3.46;88.90;100375.38;124561;1097;104311;-74
2024/01/26 09:03:52;;;;;;;5.77;2.93;;;;;;;3.43;88.73;100380.38;124359;1099;104255;-76
2024/01/26 09:06:25;;;;;;;5.47;3.20;;;;;;;3.39;89.16;100380.98;124645;1099;104293;-75
2024/01/26 09:08:57;;;;;;;5.00;2.87;;;;;;;3.38;89.32;100387.88;126290;1098;101380;-74
2024/01/26 09:11:29;;;;;;;6.40;3.07;;;;;;;3.32;89.57;100383.98;126225;1098;102439;-74
2024/01/26 09:14:01;;;;;;;6.03;3.37;;;;;;;3.31;89.46;100382.20;126349;1099;103607;-75
2024/01/26 09:16:32;;;;;;;4.57;2.87;;;;;;;3.27;90.00;100375.02;126229;1098;101537;-74
2024/01/26 09:19:04;;;;;;;5.83;3.40;;;;;;;3.18;89.44;100388.30;126456;1098;102987;-74
2024/01/26 09:21:35;;;;;;;6.07;3.17;;;;;;;3.13;89.12;100392.30;126162;1099;102931;-75
2024/01/26 09:24:07;;;;;;;5.93;3.23;;;;;;;3.05;90.05;100399.59;126163;1099;101785;-75
2024/01/26 09:26:39;;;;;;;6.73;3.50;;;;;;;2.98;89.54;100407.79;124504;1099;104363;-75
2024/01/26 09:29:10;;;;;;;7.67;3.90;;;;;;;2.89;90.02;100402.89;124736;1099;104127;-74
2024/01/26 09:31:42;;;;;;;5.47;3.10;;;;;;;2.83;89.49;100408.56;124892;1098;104242;-74
2024/01/26 09:34:14;;;;;;;5.93;3.30;;;;;;;2.80;90.11;100402.30;124803;1099;104300;-75
2024/01/26 09:36:46;;;;;;;6.10;3.10;;;;;;;2.79;89.54;100404.00;124160;1099;104223;-75
2024/01/26 09:39:17;;;;;;;5.50;3.20;;;;;;;2.77;89.12;100392.63;124657;1098;105088;-74
2024/01/26 09:41:49;;;;;;;7.03;3.37;;;;;;;2.78;89.76;100386.65;124664;1098;102548;-75
2024/01/26 09:44:21;;;;;;;7.05;3.20;;;;;;;2.80;89.42;100395.41;124350;1099;104197;-74
2024/01/26 09:46:53;;;;;;;5.83;3.20;;;;;;;2.81;89.08;100401.52;124618;1099;104194;-74
2024/01/26 09:49:28;;;;;;;4.97;3.30;;;;;;;2.83;89.07;100390.42;124634;1098;104274;-74
2024/01/26 09:52:00;;;;;;;5.10;3.10;;;;;;;2.86;89.12;100393.22;124670;1099;104166;-74
2024/01/26 09:54:49;;;;;;;7.43;3.67;;;;;;;2.90;88.44;100398.59;124835;1099;104249;-74
2024/01/26 09:57:22;;;;;;;4.63;3.23;;;;;;;2.90;88.35;100391.74;124582;1099;104211;-75
2024/01/26 09:59:53;;;;;;;6.87;3.53;;;;;;;2.91;88.63;100390.03;124980;1099;104287;-75
2024/01/26 10:02:26;;;;;;;5.83;3.40;;;;;;;2.92;87.90;100384.06;124878;1099;104309;-75
2024/01/26 10:04:58;;;;;;;7.13;3.60;;;;;;;2.96;88.14;100393.81;124780;1098;104165;-76
2024/01/26 10:07:29;;;;;;;6.87;3.50;;;;;;;2.97;88.58;100390.44;124804;1099;102268;-75
2024/01/26 10:10:00;;;;;;;6.70;3.40;;;;;;;3.00;87.98;100391.52;124838;1099;104409;-76
2024/01/26 10:12:31;;;;;;;5.50;3.03;;;;;;;3.03;88.37;100390.83;124816;1099;104168;-75
2024/01/26 10:15:10;;;;;;;6.77;3.03;;;;;;;3.03;87.66;100396.90;124814;1098;104294;-75
2024/01/26 10:17:41;;;;;;;4.90;3.27;;;;;;;3.06;88.10;100388.43;124339;1099;105487;-75
2024/01/26 10:20:15;;;;;;;7.33;3.60;;;;;;;3.10;87.78;100374.88;124720;1099;104380;-75
2024/01/26 10:22:47;;;;;;;8.15;3.47;;;;;;;3.15;87.28;100380.35;124605;1099;104249;-76
2024/01/26 10:25:18;;;;;;;6.73;3.60;;;;;;;3.17;88.54;100390.00;124405;1099;104299;-76
2024/01/26 10:27:49;;;;;;;5.00;3.27;;;;;;;3.19;87.19;100385.80;124751;1099;104219;-75
2024/01/26 10:30:21;;;;;;;6.20;3.30;;;;;;;3.21;86.98;100392.00;124816;1099;104236;-76
2024/01/26 10:32:53;;;;;;;6.23;3.13;;;;;;;3.23;87.97;100390.39;124864;1099;104182;-76
2024/01/26 10:35:25;;;;;;;4.37;3.50;;;;;;;3.25;86.88;100387.89;124642;1099;104232;-76
2024/01/26 10:37:57;;;;;;;7.40;3.60;;;;;;;3.24;86.77;100384.41;124467;1099;104252;-75
2024/01/26 10:40:29;;;;;;;7.90;3.53;;;;;;;3.26;86.00;100393.97;124706;1099;104232;-75
2024/01/26 10:43:01;;;;;;;6.13;3.00;;;;;;;3.26;86.17;100394.89;125055;1099;104303;-75
2024/01/26 10:45:32;;;;;;;6.60;3.23;;;;;;;3.25;86.00;100390.48;124734;1099;104399;-75
2024/01/26 10:48:04;;;;;;;5.40;3.00;;;;;;;3.23;85.42;100420.63;124873;1099;104245;-75
2024/01/26 10:50:37;;;;;;;9.17;3.40;;;;;;;3.25;86.26;100387.89;124367;1099;104197;-76
2024/01/26 10:56:04;;;;;;;4.83;3.00;;;;;;;3.28;85.47;100398.46;124695;1099;102893;-76
2024/01/26 10:58:36;;;;;;;6.33;3.57;;;;;;;3.28;85.32;100387.20;125656;1099;102559;-75
2024/01/26 11:01:08;;;;;;;5.93;3.20;;;;;;;3.30;85.61;100393.37;126304;1098;102759;-76
2024/01/26 11:03:39;;;;;;;5.00;3.00;;;;;;;3.31;85.46;100406.44;126068;1098;102318;-76
2024/01/26 11:06:16;;;;;;;4.53;3.13;;;;;;;3.32;84.85;100397.86;125834;1099;102768;-73
2024/01/26 11:08:58;;;;;;;5.53;3.20;;;;;;;3.35;85.53;100402.33;126285;1099;102555;-73
2024/01/26 11:11:38;;;;;;;4.07;2.60;;;;;;;3.35;84.66;100394.55;125791;1099;102955;-73
2024/01/26 11:14:13;;;;;;;6.67;3.13;;;;;;;3.34;84.75;100397.96;126438;1098;102712;-73
2024/01/26 11:16:47;;;;;;;3.83;2.80;;;;;;;3.34;84.95;100403.15;126182;1098;103835;-73
2024/01/26 11:19:31;;;;;;;4.43;3.00;;;;;;;3.34;85.10;100410.93;126131;1099;102161;-73
2024/01/26 11:22:06;;;;;;;5.90;3.10;;;;;;;3.33;84.92;100411.72;126277;1099;102550;-74
2024/01/26 11:24:43;;;;;;;4.67;3.00;;;;;;;3.33;84.87;100415.20;126022;1099;101940;-73
2024/01/26 11:27:21;;;;;;;5.13;3.10;;;;;;;3.32;84.99;100433.26;126258;1099;102742;-73
2024/01/26 11:29:56;;;;;;;5.00;2.90;;;;;;;3.31;83.83;100426.30;126337;1098;102663;-73
2024/01/26 11:32:29;;;;;;;6.22;2.90;;;;;;;3.29;84.80;100417.50;126351;1098;101959;-73
2024/01/26 11:35:07;;;;;;;5.07;3.13;;;;;;;3.28;83.86;100418.33;126359;1099;103204;-74
2024/01/26 11:37:40;;;;;;;6.40;3.10;;;;;;;3.27;84.55;100419.11;125674;1098;102741;-75
2024/01/26 11:40:19;;;;;;;5.57;3.30;;;;;;;3.29;83.68;100428.80;126326;1098;102458;-74
2024/01/26 11:42:51;;;;;;;8.73;3.30;;;;;;;3.32;84.06;100425.48;126280;1098;102361;-74